KDBQ

Dubuque Regional Airport

Dubuque, Iowa, USA
METAR KDBQ 201604Z 10010KT 3SM RA BR OVC009 21/19 A2983 RMK AO2 CIG 005V012 P0002 T02060194
Observed Flight Rules
Aug-20 @ 16:04 UTC (19 minutes ago) Instrument Flight Rules
Wind Visibility Clouds Conditions
100° at 10 knots 3 miles
  • Overcast at 900' AGL
  • Rain
  • Mist
Temperatures Readings Precipitation
Current 21°C / 70°F
Dewpoint 19°C / 66°F
Humidity 88%
Altimeter 29.83" Hg
Pressure 1010 hPa
Elevation 326
Current Rain 0.02
METAR KDBQ 201604Z 10010KT 3SM RA BR OVC009 21/19 A2983 RMK AO2 CIG 005V012 P0002 T02060194
Observed Flight Rules
Aug-20 @ 16:04 UTC
(19 minutes ago)
IFR
Wind Visibility
100° at 10 knots 3 miles
Clouds
  • Overcast at 900' AGL
Conditions
  • Rain
  • Mist
Temperature Dewpoint
21°C / 70°F 19°C / 66°F
Humidity Altimeter Pressure
88% 29.83" Hg 1010 hPa
Current Rain
0.02